createdAt,value
2019-02-20T00:01:03.930Z,7.22
2019-02-20T00:03:33.966Z,7.67
2019-02-20T00:06:02.560Z,7.95
2019-02-20T00:08:31.009Z,7.33
2019-02-20T00:10:59.456Z,7.78
2019-02-20T00:13:27.927Z,7.37
2019-02-20T00:15:56.373Z,6.78
2019-02-20T00:18:24.823Z,7.55
2019-02-20T00:20:55.678Z,7.37
2019-02-20T00:23:24.128Z,7.60
2019-02-20T00:25:52.591Z,7.12
2019-02-20T00:28:21.059Z,8.00
2019-02-20T00:30:49.511Z,7.90
2019-02-20T00:33:18.925Z,7.47
2019-02-20T00:35:48.944Z,7.72
2019-02-20T00:38:18.062Z,7.85
2019-02-20T00:40:46.576Z,8.33
2019-02-20T00:43:15.055Z,7.65
2019-02-20T00:46:03.204Z,7.92
2019-02-20T00:48:39.140Z,7.70
2019-02-20T00:51:10.854Z,8.83
2019-02-20T00:53:41.002Z,8.43
2019-02-20T00:56:10.830Z,8.58
2019-02-20T00:58:39.377Z,7.87
2019-02-20T01:01:08.211Z,9.35
2019-02-20T01:03:38.355Z,9.00
2019-02-20T01:06:06.825Z,8.50
2019-02-20T01:08:35.274Z,9.10
2019-02-20T01:11:04.492Z,9.28
2019-02-20T01:13:33.029Z,8.60
2019-02-20T01:16:01.497Z,8.85
2019-02-20T01:18:29.996Z,8.70
2019-02-20T01:20:58.493Z,8.28
2019-02-20T01:23:26.943Z,8.33
2019-02-20T01:25:55.400Z,8.10
2019-02-20T01:28:24.211Z,8.68
2019-02-20T01:30:54.234Z,7.50
2019-02-20T01:33:22.698Z,9.25
2019-02-20T01:35:51.227Z,8.35
2019-02-20T01:38:19.759Z,8.58
2019-02-20T01:40:48.237Z,8.80
2019-02-20T01:43:17.025Z,9.65
2019-02-20T01:45:46.614Z,8.60
2019-02-20T01:48:16.495Z,8.75
2019-02-20T01:50:45.057Z,9.75
2019-02-20T01:53:15.195Z,9.07
2019-02-20T01:55:43.780Z,10.23
2019-02-20T01:58:12.277Z,10.32
2019-02-20T02:00:40.862Z,9.40
2019-02-20T02:03:09.344Z,9.70
2019-02-20T02:05:37.835Z,9.70
2019-02-20T02:08:06.324Z,9.83
2019-02-20T02:10:36.142Z,10.50
2019-02-20T02:13:04.693Z,10.93
2019-02-20T02:15:33.181Z,11.18
2019-02-20T02:18:03.237Z,11.33
2019-02-20T02:20:31.828Z,11.48
2019-02-20T02:23:00.304Z,11.93
2019-02-20T02:25:28.849Z,11.85
2019-02-20T02:27:57.540Z,11.75
2019-02-20T02:30:27.392Z,10.63
2019-02-20T02:32:57.524Z,11.63
2019-02-20T02:35:25.973Z,12.43
2019-02-20T02:37:54.430Z,11.95
2019-02-20T02:40:23.005Z,12.75
2019-02-20T02:42:51.596Z,11.30
2019-02-20T02:45:21.964Z,13.20
2019-02-20T02:47:50.445Z,13.30
2019-02-20T02:50:20.505Z,12.60
2019-02-20T02:52:48.964Z,13.28
2019-02-20T02:55:17.443Z,12.80
2019-02-20T02:57:45.903Z,12.45
2019-02-20T03:00:15.524Z,13.32
2019-02-20T03:02:44.768Z,12.23
2019-02-20T03:05:13.232Z,13.35
2019-02-20T03:07:41.754Z,13.65
2019-02-20T03:10:11.429Z,11.70
2019-02-20T03:12:39.886Z,12.28
2019-02-20T03:15:10.379Z,12.75
2019-02-20T03:17:39.781Z,13.22
2019-02-20T03:20:09.465Z,12.63
2019-02-20T03:22:37.933Z,13.20
2019-02-20T03:25:07.179Z,14.00
2019-02-20T03:27:36.305Z,13.13
2019-02-20T03:30:07.046Z,12.98
2019-02-20T03:32:35.623Z,13.05
2019-02-20T03:35:06.433Z,14.07
2019-02-20T03:37:34.962Z,13.80
2019-02-20T03:40:04.287Z,12.60
2019-02-20T03:42:32.751Z,13.75
2019-02-20T03:45:01.275Z,13.00
2019-02-20T03:47:29.997Z,13.53
2019-02-20T03:49:58.539Z,12.98
2019-02-20T03:52:27.031Z,12.23
2019-02-20T03:54:55.645Z,13.95
2019-02-20T03:57:24.285Z,13.10
2019-02-20T03:59:52.885Z,14.47
2019-02-20T04:02:22.559Z,12.75
2019-02-20T04:04:51.402Z,14.07
2019-02-20T04:07:20.090Z,13.67
2019-02-20T04:09:50.380Z,13.98
2019-02-20T04:12:18.927Z,14.13
2019-02-20T04:14:48.726Z,15.78
2019-02-20T04:17:18.421Z,14.43
2019-02-20T04:19:48.523Z,15.15
2019-02-20T04:22:18.427Z,14.55
2019-02-20T04:24:46.973Z,14.18
2019-02-20T04:27:16.652Z,14.65
2019-02-20T04:29:45.400Z,14.93
2019-02-20T04:32:13.958Z,16.27
2019-02-20T04:34:43.349Z,16.10
2019-02-20T04:37:11.900Z,15.65
2019-02-20T04:39:40.392Z,16.77
2019-02-20T04:42:08.915Z,16.10
2019-02-20T04:44:37.385Z,16.10
2019-02-20T04:47:05.854Z,16.77
2019-02-20T04:49:35.949Z,16.20
2019-02-20T04:52:04.898Z,18.35
2019-02-20T04:54:33.421Z,17.37
2019-02-20T04:57:01.916Z,17.98
2019-02-20T04:59:35.389Z,17.00
2019-02-20T05:04:33.868Z,15.53
2019-02-20T05:07:02.611Z,16.30
2019-02-20T05:09:32.395Z,17.07
2019-02-20T05:12:00.888Z,16.02
2019-02-20T05:14:29.381Z,16.30
2019-02-20T05:16:59.597Z,16.80
2019-02-20T05:19:28.791Z,16.00
2019-02-20T05:21:58.907Z,16.67
2019-02-20T05:24:27.448Z,17.05
2019-02-20T05:26:56.579Z,16.48
2019-02-20T05:29:25.102Z,16.45
2019-02-20T05:31:53.566Z,16.27
2019-02-20T05:34:23.807Z,14.70
2019-02-20T05:36:54.311Z,15.65
2019-02-20T05:39:22.788Z,16.30
2019-02-20T05:41:53.598Z,15.65
2019-02-20T05:44:22.063Z,15.40
2019-02-20T05:46:53.044Z,15.65
2019-02-20T05:49:24.455Z,15.05
2019-02-20T05:51:52.913Z,16.02
2019-02-20T05:54:22.221Z,14.98
2019-02-20T05:56:50.702Z,14.00
2019-02-20T05:59:19.721Z,14.38
2019-02-20T06:01:48.316Z,15.63
2019-02-20T06:04:18.519Z,16.17
2019-02-20T06:06:49.375Z,14.68
2019-02-20T06:09:17.889Z,16.30
2019-02-20T06:11:47.376Z,16.45
2019-02-20T06:14:15.837Z,15.43
2019-02-20T06:16:44.355Z,14.60
2019-02-20T06:19:12.950Z,13.85
2019-02-20T06:21:41.433Z,13.95
2019-02-20T06:24:09.913Z,14.45
2019-02-20T06:26:38.410Z,14.83
2019-02-20T06:29:07.424Z,14.93
2019-02-20T06:31:36.546Z,14.70
2019-02-20T06:34:05.291Z,14.63
2019-02-20T06:36:33.732Z,13.47
2019-02-20T06:39:02.365Z,13.20
2019-02-20T06:41:38.619Z,14.20
2019-02-20T06:44:01.402Z,14.13
2019-02-20T06:46:29.915Z,13.30
2019-02-20T06:48:58.373Z,13.90
2019-02-20T06:51:26.859Z,13.48
2019-02-20T06:53:55.363Z,13.30
2019-02-20T06:56:23.872Z,14.10
2019-02-20T06:58:52.373Z,13.93
2019-02-20T07:01:20.914Z,14.07
2019-02-20T07:03:49.435Z,13.48
2019-02-20T07:06:43.791Z,13.10
2019-02-20T07:09:18.076Z,14.00
2019-02-20T07:11:52.260Z,13.83
2019-02-20T07:14:26.429Z,16.23
2019-02-20T07:17:31.287Z,14.53
2019-02-20T07:20:14.911Z,12.98
2019-02-20T07:23:16.794Z,14.00
2019-02-20T07:26:23.319Z,14.00
2019-02-20T07:29:18.812Z,12.73
2019-02-20T07:31:50.028Z,13.88
2019-02-20T07:34:18.506Z,13.60
2019-02-20T07:36:46.965Z,13.18
2019-02-20T07:39:15.491Z,14.25
2019-02-20T07:41:43.970Z,13.32
2019-02-20T07:44:12.443Z,13.85
2019-02-20T07:46:42.192Z,12.93
2019-02-20T07:49:10.754Z,12.68
2019-02-20T07:51:39.205Z,12.28
2019-02-20T07:54:07.697Z,11.93
2019-02-20T07:56:36.153Z,12.93
2019-02-20T07:59:04.939Z,12.53
2019-02-20T08:01:36.659Z,12.37
2019-02-20T08:04:05.183Z,11.68
2019-02-20T08:06:34.583Z,12.18
2019-02-20T08:09:04.724Z,12.40
2019-02-20T08:11:33.176Z,12.00
2019-02-20T08:14:01.640Z,11.22
2019-02-20T08:16:30.188Z,11.53
2019-02-20T08:19:03.594Z,11.75
2019-02-20T08:24:00.768Z,12.20
2019-02-20T08:26:29.250Z,11.57
2019-02-20T08:28:57.745Z,11.88
2019-02-20T08:31:26.229Z,11.60
2019-02-20T08:33:54.674Z,12.10
2019-02-20T08:36:23.397Z,11.18
2019-02-20T08:38:51.898Z,11.68
2019-02-20T08:41:20.406Z,10.80
2019-02-20T08:43:48.866Z,10.95
2019-02-20T08:46:17.378Z,11.20
2019-02-20T08:48:46.106Z,11.15
2019-02-20T08:51:15.322Z,11.63
2019-02-20T08:53:43.917Z,11.05
2019-02-20T08:56:12.424Z,11.90
2019-02-20T08:58:41.039Z,10.48
2019-02-20T09:01:09.526Z,10.88
2019-02-20T09:03:37.988Z,10.53
2019-02-20T09:06:06.507Z,9.93
2019-02-20T09:08:35.281Z,10.70
2019-02-20T09:11:04.712Z,10.43
2019-02-20T09:13:34.375Z,11.22
2019-02-20T09:16:02.920Z,12.75
2019-02-20T09:18:31.445Z,10.58
2019-02-20T09:20:59.904Z,9.88
2019-02-20T09:23:28.383Z,10.60
2019-02-20T09:25:56.856Z,10.08
2019-02-20T09:28:25.567Z,9.95
2019-02-20T09:30:54.046Z,10.63
2019-02-20T09:33:22.575Z,9.63
2019-02-20T09:35:51.012Z,9.83
2019-02-20T09:38:19.729Z,10.72
2019-02-20T09:40:48.184Z,10.40
2019-02-20T09:43:16.648Z,10.50
2019-02-20T09:45:46.373Z,11.03
2019-02-20T09:48:15.070Z,11.43
2019-02-20T09:50:43.992Z,10.60
2019-02-20T09:53:12.473Z,10.00
2019-02-20T09:55:51.359Z,13.62
2019-02-20T10:00:42.495Z,10.20
2019-02-20T10:03:10.935Z,10.55
2019-02-20T10:05:39.458Z,10.88
2019-02-20T10:08:07.975Z,9.53
2019-02-20T10:10:36.491Z,10.23
2019-02-20T10:13:05.326Z,8.78
2019-02-20T10:15:34.743Z,9.48
2019-02-20T10:18:03.341Z,9.60
2019-02-20T10:20:31.879Z,10.48
2019-02-20T10:23:00.374Z,9.45
2019-02-20T10:25:30.537Z,9.78
2019-02-20T10:27:59.072Z,9.10
2019-02-20T10:30:28.656Z,9.55
2019-02-20T10:32:57.121Z,8.53
2019-02-20T10:35:25.598Z,9.73
2019-02-20T10:37:54.090Z,9.03
2019-02-20T10:40:24.191Z,8.97
2019-02-20T10:42:52.979Z,8.30
2019-02-20T10:45:21.603Z,8.63
2019-02-20T10:47:50.271Z,9.10
2019-02-20T10:50:18.873Z,8.73
2019-02-20T10:52:47.576Z,8.00
2019-02-20T10:55:17.408Z,8.88
2019-02-20T10:57:45.934Z,8.70
2019-02-20T11:00:24.545Z,8.98
2019-02-20T11:02:53.206Z,8.95
2019-02-20T11:05:22.338Z,8.40
2019-02-20T11:07:52.408Z,8.10
2019-02-20T11:10:20.866Z,7.50
2019-02-20T11:12:50.213Z,7.60
2019-02-20T11:15:18.776Z,7.50
2019-02-20T11:17:47.324Z,7.83
2019-02-20T11:20:15.863Z,7.95
2019-02-20T11:22:44.414Z,8.00
2019-02-20T11:25:13.718Z,6.55
2019-02-20T11:27:42.164Z,6.55
2019-02-20T11:30:16.919Z,6.60
2019-02-20T11:32:45.445Z,6.40
2019-02-20T11:35:16.134Z,6.37
2019-02-20T11:37:44.670Z,6.92
2019-02-20T11:40:13.211Z,8.13
2019-02-20T11:42:41.692Z,6.83
2019-02-20T11:45:12.600Z,7.08
2019-02-20T11:47:41.188Z,7.03
2019-02-20T11:50:10.916Z,6.40
2019-02-20T11:52:39.824Z,8.13
2019-02-20T11:55:13.910Z,6.08
2019-02-20T11:57:43.364Z,6.42
2019-02-20T12:00:21.410Z,6.80
2019-02-20T12:02:49.907Z,7.28
2019-02-20T12:05:18.602Z,7.45
2019-02-20T12:07:47.067Z,7.15
2019-02-20T12:10:18.241Z,7.00
2019-02-20T12:12:46.939Z,6.30
2019-02-20T12:15:15.483Z,6.35
2019-02-20T12:17:44.095Z,7.05
2019-02-20T12:20:12.628Z,6.25
2019-02-20T12:22:41.083Z,6.85
2019-02-20T12:25:13.184Z,7.45
2019-02-20T12:27:41.812Z,7.42
2019-02-20T12:30:12.059Z,7.90
2019-02-20T12:32:40.779Z,7.78
2019-02-20T12:35:09.764Z,7.33
2019-02-20T12:37:38.219Z,8.28
2019-02-20T12:40:11.436Z,6.85
2019-02-20T12:42:41.848Z,6.17
2019-02-20T12:45:10.897Z,6.80
2019-02-20T12:47:39.461Z,7.15
2019-02-20T12:50:10.943Z,7.72
2019-02-20T12:52:39.817Z,7.42
2019-02-20T12:55:09.343Z,7.65
2019-02-20T12:57:39.310Z,7.17
2019-02-20T13:00:16.581Z,7.00
2019-02-20T13:02:45.174Z,6.40
2019-02-20T13:05:13.699Z,6.47
2019-02-20T13:07:42.155Z,6.47
2019-02-20T13:10:11.641Z,7.22
2019-02-20T13:12:40.260Z,7.47
2019-02-20T13:15:10.824Z,7.50
2019-02-20T13:17:39.353Z,6.75
2019-02-20T13:20:10.248Z,7.30
2019-02-20T13:22:40.323Z,7.85
2019-02-20T13:25:10.104Z,7.75
2019-02-20T13:27:43.601Z,7.83
2019-02-20T13:30:14.744Z,6.75
2019-02-20T13:32:44.649Z,6.75
2019-02-20T13:35:14.420Z,7.40
2019-02-20T13:37:44.579Z,7.22
2019-02-20T13:40:13.192Z,7.05
2019-02-20T13:42:43.275Z,7.22
2019-02-20T13:45:11.948Z,5.90
2019-02-20T13:47:40.579Z,6.60
2019-02-20T13:50:11.860Z,6.17
2019-02-20T13:52:40.802Z,7.95
2019-02-20T13:55:09.502Z,6.98
2019-02-20T13:57:48.135Z,6.87
2019-02-20T14:00:16.824Z,6.53
2019-02-20T14:02:46.828Z,6.90
2019-02-20T14:05:15.463Z,5.45
2019-02-20T14:07:45.941Z,6.45
2019-02-20T14:10:16.633Z,6.60
2019-02-20T14:12:45.233Z,6.42
2019-02-20T14:15:13.842Z,5.90
2019-02-20T14:17:43.871Z,4.97
2019-02-20T14:20:12.977Z,5.72
2019-02-20T14:22:42.484Z,6.30
2019-02-20T14:25:12.411Z,5.70
2019-02-20T14:30:29.856Z,6.15
2019-02-20T14:32:58.314Z,6.70
2019-02-20T14:35:28.458Z,6.80
2019-02-20T14:37:59.059Z,6.53
2019-02-20T14:40:28.841Z,6.47
2019-02-20T14:42:57.331Z,6.70
2019-02-20T14:45:25.960Z,7.42
2019-02-20T14:47:54.660Z,6.83
2019-02-20T14:50:23.419Z,6.80
2019-02-20T14:52:51.998Z,7.05
2019-02-20T14:55:20.455Z,6.47
2019-02-20T14:58:04.174Z,6.03
2019-02-20T15:00:32.709Z,7.50
2019-02-20T15:03:03.792Z,6.00
2019-02-20T15:05:32.435Z,6.28
2019-02-20T15:08:02.156Z,5.70
2019-02-20T15:10:31.870Z,5.72
2019-02-20T15:13:00.352Z,5.37
2019-02-20T15:15:29.273Z,5.62
2019-02-20T15:17:58.294Z,5.37
2019-02-20T15:20:27.796Z,5.47
2019-02-20T15:22:58.429Z,5.62
2019-02-20T15:25:27.095Z,5.37
2019-02-20T15:27:55.776Z,5.25
2019-02-20T15:30:24.339Z,5.80
2019-02-20T15:32:52.882Z,6.08
2019-02-20T15:35:21.819Z,5.03
2019-02-20T15:37:51.653Z,5.72
2019-02-20T15:40:22.339Z,5.87
2019-02-20T15:42:52.408Z,5.62
2019-02-20T15:45:20.951Z,5.17
2019-02-20T15:47:54.431Z,5.35
2019-02-20T15:52:50.593Z,5.10
2019-02-20T15:55:19.799Z,5.53
2019-02-20T15:57:48.303Z,4.97
2019-02-20T16:00:20.129Z,5.65
2019-02-20T16:02:50.838Z,5.20
2019-02-20T16:05:19.536Z,5.80
2019-02-20T16:07:48.249Z,5.45
2019-02-20T16:10:17.052Z,5.80
2019-02-20T16:12:45.643Z,5.42
2019-02-20T16:15:14.827Z,5.35
2019-02-20T16:17:44.811Z,5.30
2019-02-20T16:20:14.092Z,5.37
2019-02-20T16:22:42.630Z,5.45
2019-02-20T16:25:14.412Z,6.87
2019-02-20T16:27:47.190Z,6.17
2019-02-20T16:30:15.149Z,5.85
2019-02-20T16:32:43.706Z,5.47
2019-02-20T16:35:12.846Z,6.35
2019-02-20T16:37:44.681Z,6.97
2019-02-20T16:40:15.053Z,5.67
2019-02-20T16:42:43.575Z,6.20
2019-02-20T16:45:25.352Z,6.78
2019-02-20T16:47:54.360Z,5.72
2019-02-20T16:50:23.026Z,7.03
2019-02-20T16:52:51.656Z,6.53
2019-02-20T16:55:22.582Z,5.93
2019-02-20T16:57:56.751Z,7.22
2019-02-20T17:00:22.675Z,7.00
2019-02-20T17:02:51.704Z,6.10
2019-02-20T17:05:20.308Z,6.83
2019-02-20T17:07:49.019Z,6.92
2019-02-20T17:10:17.646Z,6.65
2019-02-20T17:12:46.293Z,6.45
2019-02-20T17:15:16.924Z,6.60
2019-02-20T17:17:45.622Z,7.15
2019-02-20T17:20:35.009Z,8.03
2019-02-20T17:23:05.146Z,6.60
2019-02-20T17:25:33.715Z,8.15
2019-02-20T17:28:05.747Z,6.72
2019-02-20T17:30:32.713Z,6.35
2019-02-20T17:33:01.965Z,6.87
2019-02-20T17:35:30.758Z,6.08
2019-02-20T17:37:59.385Z,6.72
2019-02-20T17:40:28.691Z,6.87
2019-02-20T17:42:57.224Z,7.92
2019-02-20T17:45:26.403Z,7.30
2019-02-20T17:47:55.009Z,7.22
2019-02-20T17:50:25.308Z,7.17
2019-02-20T17:52:53.919Z,7.33
2019-02-20T17:55:22.437Z,6.83
2019-02-20T17:57:51.116Z,6.75
2019-02-20T18:00:21.848Z,9.03
2019-02-20T18:02:50.353Z,7.35
2019-02-20T18:05:18.910Z,7.60
2019-02-20T18:07:51.403Z,7.00
2019-02-20T18:10:17.667Z,7.33
2019-02-20T18:12:46.171Z,7.25
2019-02-20T18:15:15.084Z,7.05
2019-02-20T18:17:43.817Z,7.45
2019-02-20T18:20:12.670Z,7.75
2019-02-20T18:22:41.210Z,7.20
2019-02-20T18:25:12.832Z,7.94
2019-02-20T18:27:41.447Z,7.50
2019-02-20T18:30:12.523Z,7.78
2019-02-20T18:32:42.322Z,8.10
2019-02-20T18:35:12.412Z,8.03
2019-02-20T18:37:40.978Z,8.70
2019-02-20T18:40:12.222Z,8.70
2019-02-20T18:42:40.692Z,8.33
2019-02-20T18:45:12.286Z,8.60
2019-02-20T18:47:40.805Z,8.40
2019-02-20T18:50:12.259Z,9.06
2019-02-20T18:52:40.804Z,8.30
2019-02-20T18:55:12.386Z,8.25
2019-02-20T18:57:41.941Z,8.80
2019-02-20T19:00:16.158Z,8.93
2019-02-20T19:02:44.784Z,9.25
2019-02-20T19:05:13.379Z,8.98
2019-02-20T19:07:43.494Z,8.30
2019-02-20T19:10:35.698Z,8.70
2019-02-20T19:13:24.831Z,9.00
2019-02-20T19:16:18.304Z,9.33
2019-02-20T19:19:03.215Z,9.13
2019-02-20T19:21:50.198Z,9.38
2019-02-20T19:24:30.835Z,9.13
2019-02-20T19:27:09.243Z,9.58
2019-02-20T19:29:44.677Z,9.00
2019-02-20T19:32:28.481Z,9.33
2019-02-20T19:37:38.119Z,9.08
2019-02-20T19:40:32.253Z,9.30
2019-02-20T19:43:30.563Z,10.58
2019-02-20T19:46:18.497Z,10.32
2019-02-20T19:48:56.210Z,12.00
2019-02-20T19:51:39.224Z,12.85
2019-02-20T19:54:22.696Z,12.70
2019-02-20T19:56:56.986Z,12.13
2019-02-20T19:59:40.827Z,15.00
2019-02-20T20:05:16.280Z,13.55
2019-02-20T20:07:56.710Z,14.18
2019-02-20T20:10:37.197Z,14.73
2019-02-20T20:13:25.496Z,14.18
2019-02-20T20:16:18.161Z,15.95
2019-02-20T20:18:56.084Z,13.20
2019-02-20T20:21:33.761Z,13.65
2019-02-20T20:24:32.521Z,14.60
2019-02-20T20:27:35.899Z,14.73
2019-02-20T20:30:16.955Z,14.30
2019-02-20T20:32:55.221Z,14.25
2019-02-20T20:35:59.816Z,14.07
2019-02-20T20:38:45.995Z,13.28
2019-02-20T20:41:21.179Z,14.20
2019-02-20T20:44:27.752Z,14.20
2019-02-20T20:47:05.107Z,13.83
2019-02-20T20:50:02.365Z,14.70
2019-02-20T20:52:33.924Z,13.45
2019-02-20T20:55:20.227Z,13.65
2019-02-20T20:58:11.395Z,13.75
2019-02-20T21:01:02.607Z,14.83
2019-02-20T21:03:34.156Z,14.50
2019-02-20T21:06:05.788Z,13.95
2019-02-20T21:08:37.342Z,14.20
2019-02-20T21:11:17.689Z,14.40
2019-02-20T21:13:57.787Z,14.70
2019-02-20T21:16:53.925Z,13.95
2019-02-20T21:19:57.333Z,13.83
2019-02-20T21:22:55.699Z,13.28
2019-02-20T21:25:53.082Z,14.05
2019-02-20T21:28:52.788Z,13.08
2019-02-20T21:31:40.803Z,12.85
2019-02-20T21:34:29.902Z,12.53
2019-02-20T21:37:06.821Z,16.75
2019-02-20T21:39:38.354Z,12.37
2019-02-20T21:42:16.047Z,13.45
2019-02-20T21:44:53.455Z,11.83
2019-02-20T21:47:39.330Z,12.70
2019-02-20T21:50:16.146Z,12.55
2019-02-20T21:52:53.875Z,12.50
2019-02-20T21:55:58.907Z,12.18
2019-02-20T21:58:33.396Z,12.37
2019-02-20T22:01:22.825Z,12.03
2019-02-20T22:03:57.264Z,12.07
2019-02-20T22:06:49.717Z,12.95
2019-02-20T22:09:37.515Z,12.53
2019-02-20T22:12:50.593Z,11.50
2019-02-20T22:15:39.620Z,11.85
2019-02-20T22:18:20.467Z,12.58
2019-02-20T22:21:13.353Z,12.15
2019-02-20T22:23:50.903Z,12.60
2019-02-20T22:26:46.647Z,13.40
2019-02-20T22:29:21.297Z,13.15
2019-02-20T22:32:07.917Z,12.55
2019-02-20T22:34:48.304Z,12.63
2019-02-20T22:37:31.911Z,13.50
2019-02-20T22:40:28.958Z,12.33
2019-02-20T22:43:08.676Z,13.20
2019-02-20T22:45:55.086Z,14.55
2019-02-20T22:48:35.708Z,14.10
2019-02-20T22:51:22.469Z,14.68
2019-02-20T22:54:10.826Z,13.95
2019-02-20T22:57:09.169Z,15.20
2019-02-20T23:00:01.374Z,15.50
2019-02-20T23:02:48.688Z,15.40
2019-02-20T23:05:39.795Z,15.03
2019-02-20T23:08:20.561Z,15.83
2019-02-20T23:11:14.264Z,16.93
2019-02-20T23:13:45.859Z,16.57
2019-02-20T23:16:14.306Z,16.70
2019-02-20T23:18:42.946Z,16.90
2019-02-20T23:21:11.426Z,17.23
2019-02-20T23:23:39.875Z,17.12
2019-02-20T23:26:08.331Z,17.95
2019-02-20T23:28:36.904Z,17.62
2019-02-20T23:31:05.371Z,18.32
2019-02-20T23:33:34.413Z,17.42
2019-02-20T23:36:02.875Z,17.75
2019-02-20T23:38:31.503Z,19.37
2019-02-20T23:40:59.977Z,19.27
2019-02-20T23:43:28.421Z,19.23
2019-02-20T23:45:56.889Z,19.50
2019-02-20T23:48:25.364Z,19.40
2019-02-20T23:50:53.877Z,19.23
2019-02-20T23:53:22.341Z,19.42
2019-02-20T23:55:50.811Z,20.95
2019-02-20T23:58:19.267Z,20.65
